createdAt,value
2019-04-16T00:02:58.355Z,59.32
2019-04-16T00:06:12.725Z,59.35
2019-04-16T00:09:29.123Z,61.11
2019-04-16T00:12:45.692Z,61.36
2019-04-16T00:15:50.805Z,62.70
2019-04-16T00:18:58.137Z,63.15
2019-04-16T00:22:19.905Z,63.47
2019-04-16T00:25:25.123Z,63.92
2019-04-16T00:28:31.318Z,64.97
2019-04-16T00:31:37.664Z,65.90
2019-04-16T00:34:44.789Z,67.03
2019-04-16T00:37:51.755Z,67.72
2019-04-16T00:41:00.766Z,68.47
2019-04-16T00:44:03.749Z,67.42
2019-04-16T00:47:08.928Z,68.62
2019-04-16T00:50:15.439Z,69.17
2019-04-16T00:53:20.611Z,69.42
2019-04-16T00:56:25.804Z,69.91
2019-04-16T00:59:30.889Z,69.90
2019-04-16T01:02:36.019Z,70.22
2019-04-16T01:05:41.170Z,70.47
2019-04-16T01:08:54.410Z,70.99
2019-04-16T01:11:53.343Z,71.54
2019-04-16T01:15:02.597Z,72.21
2019-04-16T01:18:09.027Z,72.38
2019-04-16T01:21:14.979Z,72.38
2019-04-16T01:24:21.146Z,73.14
2019-04-16T01:27:38.858Z,73.61
2019-04-16T01:31:01.095Z,74.23
2019-04-16T01:34:24.141Z,74.20
2019-04-16T01:37:57.712Z,74.92
2019-04-16T01:41:08.823Z,75.39
2019-04-16T01:44:14.056Z,76.52
2019-04-16T01:47:19.207Z,76.46
2019-04-16T01:50:24.404Z,75.79
2019-04-16T01:53:29.576Z,76.30
2019-04-16T01:56:34.669Z,76.93
2019-04-16T01:59:39.790Z,77.40
2019-04-16T02:02:46.382Z,77.61
2019-04-16T02:05:54.601Z,77.83
2019-04-16T02:09:01.750Z,78.25
2019-04-16T02:12:07.232Z,79.05
2019-04-16T02:15:12.408Z,79.13
2019-04-16T02:18:17.580Z,79.65
2019-04-16T02:21:23.749Z,80.09
2019-04-16T02:24:28.813Z,80.31
2019-04-16T02:27:34.028Z,80.72
2019-04-16T02:30:39.869Z,80.97
2019-04-16T02:33:45.150Z,80.67
2019-04-16T02:36:50.341Z,80.34
2019-04-16T02:39:57.976Z,80.89
2019-04-16T02:43:06.510Z,81.27
2019-04-16T02:46:09.921Z,81.27
2019-04-16T02:49:15.045Z,81.23
2019-04-16T02:52:39.113Z,81.84
2019-04-16T02:56:07.725Z,81.65
2019-04-16T02:59:16.043Z,81.66
2019-04-16T03:02:38.995Z,81.67
2019-04-16T03:05:47.071Z,81.14
2019-04-16T03:08:52.289Z,81.03
2019-04-16T03:11:57.467Z,80.97
2019-04-16T03:15:02.883Z,81.19
2019-04-16T03:18:08.327Z,80.97
2019-04-16T03:21:13.507Z,81.19
2019-04-16T03:24:18.763Z,81.42
2019-04-16T03:27:23.837Z,81.32
2019-04-16T03:30:28.955Z,80.90
2019-04-16T03:33:34.162Z,81.16
2019-04-16T03:36:39.305Z,81.47
2019-04-16T03:39:44.989Z,81.44
2019-04-16T03:43:10.581Z,80.96
2019-04-16T03:46:15.723Z,81.18
2019-04-16T03:49:20.861Z,81.86
2019-04-16T03:52:25.960Z,81.78
2019-04-16T03:55:31.249Z,82.38
2019-04-16T03:58:38.609Z,82.76
2019-04-16T04:01:45.827Z,83.22
2019-04-16T04:04:50.120Z,83.45
2019-04-16T04:07:55.707Z,82.84
2019-04-16T04:11:00.923Z,83.02
2019-04-16T04:14:06.040Z,82.49
2019-04-16T04:17:12.542Z,82.98
2019-04-16T04:20:19.150Z,83.33
2019-04-16T04:23:25.534Z,83.65
2019-04-16T04:26:31.487Z,83.93
2019-04-16T04:29:36.689Z,84.15
2019-04-16T04:32:41.865Z,83.85
2019-04-16T04:35:47.031Z,84.50
2019-04-16T04:38:52.150Z,84.39
2019-04-16T04:41:57.364Z,84.37
2019-04-16T04:45:08.400Z,83.81
2019-04-16T04:48:11.959Z,84.05
2019-04-16T04:51:17.439Z,84.08
2019-04-16T04:54:23.493Z,84.03
2019-04-16T04:57:31.161Z,82.63
2019-04-16T05:00:37.438Z,79.65
2019-04-16T05:04:05.210Z,75.64
2019-04-16T05:07:10.499Z,72.81
2019-04-16T05:10:15.770Z,70.48
2019-04-16T05:13:23.918Z,70.04
2019-04-16T05:16:27.934Z,66.93
2019-04-16T05:19:33.153Z,64.26
2019-04-16T05:22:38.257Z,66.22
2019-04-16T05:25:43.514Z,64.67
2019-04-16T05:28:48.720Z,64.91
2019-04-16T05:31:54.495Z,63.10
2019-04-16T05:35:00.865Z,63.22
2019-04-16T05:38:06.032Z,59.16
2019-04-16T05:41:13.504Z,60.16
2019-04-16T05:44:18.068Z,57.37
2019-04-16T05:47:23.255Z,59.97
2019-04-16T05:50:29.829Z,57.85
2019-04-16T05:53:37.373Z,55.54
2019-04-16T05:56:47.562Z,58.38
2019-04-16T05:59:52.787Z,55.34
2019-04-16T06:02:57.925Z,56.38
2019-04-16T06:06:03.021Z,58.14
2019-04-16T06:09:12.263Z,59.86
2019-04-16T06:12:16.686Z,60.49
2019-04-16T06:15:40.843Z,58.93
2019-04-16T06:18:55.293Z,59.13
2019-04-16T06:22:31.831Z,58.99
2019-04-16T06:25:47.531Z,58.26
2019-04-16T06:28:59.978Z,58.44
2019-04-16T06:32:35.517Z,59.38
2019-04-16T06:36:05.525Z,59.32
2019-04-16T06:39:15.741Z,57.85
2019-04-16T06:42:25.352Z,58.60
2019-04-16T06:45:41.418Z,58.83
2019-04-16T06:49:17.634Z,58.45
2019-04-16T06:52:59.185Z,58.73
2019-04-16T06:56:23.323Z,57.34
2019-04-16T06:59:34.419Z,56.57
2019-04-16T07:03:01.670Z,55.29
2019-04-16T07:06:21.147Z,54.27
2019-04-16T07:09:41.488Z,52.45
2019-04-16T07:12:39.303Z,47.49
2019-04-16T07:15:45.591Z,46.85
2019-04-16T07:18:50.850Z,46.05
2019-04-16T07:21:55.985Z,44.83
2019-04-16T07:25:04.255Z,43.52
2019-04-16T07:28:15.325Z,43.97
2019-04-16T07:31:33.556Z,44.91
2019-04-16T07:35:01.469Z,43.45
2019-04-16T07:38:35.443Z,43.61
2019-04-16T07:42:08.558Z,42.64
2019-04-16T07:45:26.909Z,40.89
2019-04-16T07:48:46.655Z,40.84
2019-04-16T07:52:13.804Z,41.52
2019-04-16T07:55:30.058Z,40.95
2019-04-16T07:58:35.236Z,40.05
2019-04-16T08:01:40.456Z,40.49
2019-04-16T08:04:45.643Z,40.35
2019-04-16T08:07:52.890Z,42.62
2019-04-16T08:10:58.316Z,40.29
2019-04-16T08:14:08.638Z,39.56
2019-04-16T08:17:10.419Z,41.02
2019-04-16T08:20:20.080Z,39.27
2019-04-16T08:23:43.737Z,38.88
2019-04-16T08:26:48.904Z,38.80
2019-04-16T08:29:54.152Z,37.62
2019-04-16T08:32:59.312Z,37.66
2019-04-16T08:36:04.475Z,38.24
2019-04-16T08:39:13.429Z,37.05
2019-04-16T08:42:18.576Z,37.38
2019-04-16T08:45:23.739Z,37.54
2019-04-16T08:48:28.975Z,37.16
2019-04-16T08:51:37.047Z,37.03
2019-04-16T08:54:41.113Z,37.96
2019-04-16T08:57:47.024Z,36.58
2019-04-16T09:00:52.537Z,37.33
2019-04-16T09:04:02.647Z,36.84
2019-04-16T09:07:12.080Z,36.38
2019-04-16T09:10:19.098Z,35.19
2019-04-16T09:13:25.652Z,36.01
2019-04-16T09:16:32.578Z,33.78
2019-04-16T09:19:39.241Z,34.60
2019-04-16T09:22:49.098Z,34.88
2019-04-16T09:26:12.397Z,34.58
2019-04-16T09:29:23.940Z,34.26
2019-04-16T09:32:47.917Z,34.04
2019-04-16T09:36:18.758Z,34.30
2019-04-16T09:39:39.010Z,33.82
2019-04-16T09:42:44.173Z,32.81
2019-04-16T09:45:49.386Z,33.10
2019-04-16T09:48:54.594Z,32.33
2019-04-16T09:51:59.838Z,32.39
2019-04-16T09:55:05.132Z,32.42
2019-04-16T09:58:17.016Z,32.28
2019-04-16T10:01:24.051Z,32.26
2019-04-16T10:04:29.203Z,31.31
2019-04-16T10:07:34.354Z,31.80
2019-04-16T10:10:39.476Z,32.21
2019-04-16T10:13:44.651Z,31.25
2019-04-16T10:16:49.807Z,30.94
2019-04-16T10:19:55.030Z,30.98
2019-04-16T10:23:01.824Z,30.09
2019-04-16T10:26:06.999Z,30.70
2019-04-16T10:29:15.535Z,30.36
2019-04-16T10:32:20.749Z,28.57
2019-04-16T10:35:26.481Z,28.99
2019-04-16T10:38:36.848Z,29.11
2019-04-16T10:41:56.399Z,28.30
2019-04-16T10:45:09.367Z,28.44
2019-04-16T10:48:33.548Z,28.20
2019-04-16T10:52:06.553Z,28.09
2019-04-16T10:55:27.300Z,27.57
2019-04-16T10:58:55.947Z,28.32
2019-04-16T11:02:38.592Z,28.04
2019-04-16T11:05:56.773Z,28.54
2019-04-16T11:09:00.681Z,27.49
2019-04-16T11:12:07.779Z,28.61
2019-04-16T11:15:16.038Z,28.88
2019-04-16T11:18:21.257Z,26.94
2019-04-16T11:21:27.535Z,27.10
2019-04-16T11:24:32.733Z,27.91
2019-04-16T11:27:37.851Z,26.54
2019-04-16T11:30:48.702Z,27.64
2019-04-16T11:33:53.547Z,27.14
2019-04-16T11:36:58.862Z,26.64
2019-04-16T11:40:05.274Z,27.28
2019-04-16T11:43:10.466Z,26.62
2019-04-16T11:46:15.819Z,27.08
2019-04-16T11:49:21.836Z,27.17
2019-04-16T11:52:27.135Z,26.21
2019-04-16T11:55:32.386Z,25.11
2019-04-16T12:04:02.675Z,25.66
2019-04-16T12:07:31.580Z,26.36
2019-04-16T12:10:41.207Z,26.08
2019-04-16T12:14:09.962Z,25.63
2019-04-16T12:17:19.429Z,26.02
2019-04-16T12:20:44.632Z,26.39
2019-04-16T12:24:18.428Z,26.63
2019-04-16T12:27:43.510Z,26.19
2019-04-16T12:31:01.933Z,25.79
2019-04-16T12:34:13.942Z,25.77
2019-04-16T12:37:37.651Z,26.17
2019-04-16T12:41:01.771Z,25.83
2019-04-16T12:44:26.075Z,26.47
2019-04-16T12:47:35.517Z,25.57
2019-04-16T12:51:02.496Z,25.33
2019-04-16T12:54:26.260Z,25.03
2019-04-16T12:57:49.516Z,25.43
2019-04-16T13:01:03.074Z,25.30
2019-04-16T13:04:14.211Z,24.99
2019-04-16T13:07:34.166Z,25.14
2019-04-16T13:11:13.216Z,25.70
2019-04-16T13:14:37.817Z,24.98
2019-04-16T13:18:01.009Z,24.10
2019-04-16T13:21:34.591Z,24.79
2019-04-16T13:24:43.762Z,25.32
2019-04-16T13:27:50.889Z,25.60
2019-04-16T13:30:56.155Z,24.20
2019-04-16T13:34:01.286Z,25.34
2019-04-16T13:37:07.559Z,23.92
2019-04-16T13:40:14.946Z,24.66
2019-04-16T13:43:23.185Z,24.83
2019-04-16T13:46:29.481Z,24.56
2019-04-16T13:49:46.807Z,26.56
2019-04-16T13:52:56.050Z,24.35
2019-04-16T13:56:26.517Z,26.68
2019-04-16T13:59:50.715Z,24.19
2019-04-16T14:02:59.146Z,25.65
2019-04-16T14:06:09.350Z,23.71
2019-04-16T14:09:11.206Z,23.82
2019-04-16T14:12:16.650Z,24.09
2019-04-16T14:15:31.627Z,24.47
2019-04-16T14:18:32.567Z,24.08
2019-04-16T14:21:37.240Z,25.42
2019-04-16T14:24:42.433Z,24.68
2019-04-16T14:27:47.589Z,24.18
2019-04-16T14:30:52.741Z,24.53
2019-04-16T14:34:03.043Z,25.67
2019-04-16T14:37:08.194Z,24.50
2019-04-16T14:40:17.280Z,24.76
2019-04-16T14:43:29.370Z,25.15
2019-04-16T14:46:33.999Z,24.39
2019-04-16T14:49:39.154Z,24.36
2019-04-16T14:52:44.514Z,23.07
2019-04-16T14:56:00.525Z,25.30
2019-04-16T14:59:30.399Z,24.68
2019-04-16T15:02:42.028Z,25.60
2019-04-16T15:06:17.085Z,24.75
2019-04-16T15:09:32.863Z,24.02
2019-04-16T15:12:55.542Z,23.73
2019-04-16T15:16:22.166Z,23.49
2019-04-16T15:19:28.859Z,24.14
2019-04-16T15:22:45.926Z,24.01
2019-04-16T15:26:09.185Z,24.56
2019-04-16T15:29:20.869Z,25.48
2019-04-16T15:32:46.166Z,24.09
2019-04-16T15:36:01.972Z,24.25
2019-04-16T15:39:14.378Z,24.26
2019-04-16T15:42:48.980Z,25.57
2019-04-16T15:46:26.518Z,24.82
2019-04-16T15:49:40.054Z,25.58
2019-04-16T15:52:51.868Z,25.74
2019-04-16T15:56:28.066Z,25.47
2019-04-16T15:59:56.185Z,24.13
2019-04-16T16:03:19.370Z,25.06
2019-04-16T16:06:25.962Z,25.61
2019-04-16T16:09:50.107Z,24.83
2019-04-16T16:12:55.454Z,24.74
2019-04-16T16:16:00.587Z,26.03
2019-04-16T16:19:10.950Z,26.15
2019-04-16T16:22:12.688Z,27.21
2019-04-16T16:25:18.149Z,27.27
2019-04-16T16:28:23.401Z,26.06
2019-04-16T16:31:33.447Z,26.37
2019-04-16T16:34:35.511Z,26.77
2019-04-16T16:37:40.677Z,26.65
2019-04-16T16:40:49.459Z,26.10
2019-04-16T16:43:52.796Z,27.46
2019-04-16T16:47:06.958Z,27.90
2019-04-16T16:50:17.341Z,28.21
2019-04-16T16:53:31.368Z,28.28
2019-04-16T16:56:47.145Z,28.87
2019-04-16T17:00:29.584Z,30.62
2019-04-16T17:04:11.918Z,29.76
2019-04-16T17:07:18.463Z,32.17
2019-04-16T17:10:23.589Z,32.44
2019-04-16T17:13:28.781Z,33.82
2019-04-16T17:16:33.967Z,31.90
2019-04-16T17:19:39.134Z,34.40
2019-04-16T17:22:44.309Z,35.22
2019-04-16T17:25:51.217Z,36.13
2019-04-16T17:28:56.434Z,34.89
2019-04-16T17:32:01.562Z,38.93
2019-04-16T17:35:07.877Z,35.38
2019-04-16T17:38:13.767Z,35.85
2019-04-16T17:41:25.811Z,37.47
2019-04-16T17:44:49.944Z,35.68
2019-04-16T17:48:09.872Z,35.83
2019-04-16T17:51:34.039Z,36.07
2019-04-16T17:55:02.001Z,38.22
2019-04-16T17:58:10.773Z,38.20
2019-04-16T18:01:33.203Z,37.36
2019-04-16T18:04:56.461Z,36.68
2019-04-16T18:08:20.794Z,36.52
2019-04-16T18:11:45.443Z,37.88
2019-04-16T18:15:28.078Z,37.89
2019-04-16T18:18:49.882Z,37.17
2019-04-16T18:22:17.295Z,37.05
2019-04-16T18:25:54.919Z,40.01
2019-04-16T18:29:04.470Z,38.73
2019-04-16T18:32:33.716Z,40.11
2019-04-16T18:35:44.615Z,38.03
2019-04-16T18:39:11.885Z,40.34
2019-04-16T18:42:35.681Z,40.97
2019-04-16T18:45:59.861Z,42.52
2019-04-16T18:49:10.847Z,42.41
2019-04-16T18:52:16.147Z,42.99
2019-04-16T18:55:21.457Z,45.01
2019-04-16T18:58:26.672Z,45.07
2019-04-16T19:01:33.405Z,45.55
2019-04-16T19:04:38.691Z,44.85
2019-04-16T19:07:43.970Z,46.90
2019-04-16T19:10:50.370Z,46.38
2019-04-16T19:13:55.677Z,48.08
2019-04-16T19:17:00.855Z,47.44
2019-04-16T19:20:06.118Z,48.33
2019-04-16T19:23:11.371Z,47.73
2019-04-16T19:26:16.661Z,48.39
2019-04-16T19:29:21.830Z,48.36
2019-04-16T19:32:27.784Z,49.37
2019-04-16T19:35:33.955Z,49.88
2019-04-16T19:38:40.502Z,46.99
2019-04-16T19:41:45.892Z,47.26
2019-04-16T19:44:51.084Z,45.90
2019-04-16T19:48:00.290Z,47.61
2019-04-16T19:51:03.060Z,48.03
2019-04-16T19:54:08.226Z,48.92
2019-04-16T19:57:15.587Z,48.90
2019-04-16T20:00:22.944Z,49.37
2019-04-16T20:03:30.462Z,49.40
2019-04-16T20:06:34.494Z,50.01
2019-04-16T20:09:39.823Z,50.74
2019-04-16T20:12:45.055Z,50.87
2019-04-16T20:15:51.430Z,51.47
2019-04-16T20:18:56.644Z,50.38
2019-04-16T20:22:01.926Z,51.54
2019-04-16T20:25:07.306Z,51.55
2019-04-16T20:28:15.398Z,51.84
2019-04-16T20:31:19.468Z,52.01
2019-04-16T20:34:24.830Z,49.77
2019-04-16T20:37:29.973Z,51.55
2019-04-16T20:40:35.486Z,50.36
2019-04-16T20:43:40.811Z,49.42
2019-04-16T20:46:45.986Z,48.48
2019-04-16T20:49:51.316Z,48.90
2019-04-16T20:52:56.637Z,48.42
2019-04-16T20:56:01.945Z,46.10
2019-04-16T20:59:08.187Z,49.83
2019-04-16T21:02:13.446Z,49.65
2019-04-16T21:05:22.393Z,50.17
2019-04-16T21:08:25.686Z,49.09
2019-04-16T21:11:31.794Z,50.11
2019-04-16T21:14:36.981Z,52.94
2019-04-16T21:17:42.190Z,53.34
2019-04-16T21:20:50.836Z,52.54
2019-04-16T21:23:54.970Z,52.79
2019-04-16T21:27:00.286Z,50.59
2019-04-16T21:30:12.312Z,52.62
2019-04-16T21:33:21.256Z,52.09
2019-04-16T21:36:39.385Z,51.72
2019-04-16T21:39:54.068Z,50.99
2019-04-16T21:42:59.323Z,52.39
2019-04-16T21:46:04.530Z,52.17
2019-04-16T21:49:09.674Z,53.19
2019-04-16T21:52:14.807Z,52.89
2019-04-16T21:55:19.987Z,51.77
2019-04-16T21:58:25.310Z,51.59
2019-04-16T22:01:41.359Z,53.10
2019-04-16T22:04:46.568Z,53.79
2019-04-16T22:07:53.692Z,54.20
2019-04-16T22:10:58.863Z,52.58
2019-04-16T22:14:04.732Z,52.58
2019-04-16T22:17:10.018Z,52.73
2019-04-16T22:20:15.128Z,52.52
2019-04-16T22:23:20.326Z,53.35
2019-04-16T22:26:27.573Z,53.30
2019-04-16T22:29:32.834Z,53.86
2019-04-16T22:32:37.937Z,54.53
2019-04-16T22:35:43.068Z,54.46
2019-04-16T22:38:52.064Z,55.22
2019-04-16T22:42:06.371Z,55.82
2019-04-16T22:45:22.656Z,57.69
2019-04-16T22:48:27.881Z,57.84
2019-04-16T22:51:33.173Z,57.96
2019-04-16T22:54:38.377Z,59.82
2019-04-16T22:57:43.626Z,61.23
2019-04-16T23:00:48.824Z,62.06
2019-04-16T23:03:54.547Z,62.31
2019-04-16T23:06:59.701Z,63.20
2019-04-16T23:10:05.003Z,62.89
2019-04-16T23:13:10.190Z,62.08
2019-04-16T23:16:15.561Z,60.94
2019-04-16T23:19:21.299Z,59.78
2019-04-16T23:22:26.640Z,59.31
2019-04-16T23:25:31.732Z,60.53
2019-04-16T23:28:39.710Z,60.88
2019-04-16T23:31:43.750Z,62.16
2019-04-16T23:34:48.928Z,62.48
2019-04-16T23:37:58.062Z,63.28
2019-04-16T23:41:01.004Z,62.46
2019-04-16T23:44:31.264Z,62.37
2019-04-16T23:48:01.551Z,61.93
2019-04-16T23:51:10.685Z,62.13
2019-04-16T23:54:23.290Z,63.17
2019-04-16T23:57:36.871Z,62.78
